Terminal Aerodrome Forecast
Issued by NWS

Home | Current Version | Previous Version | Text Only | Print | Product List | Glossary On
Versions: 1 2 3 4 5 6 7 8 9 10 11 12 13 14 15 16 17 18 19 20 21 22 23 24 25 26 27 28 29 30 31 32 33 34 35 36 37 38 39 40 41 42 43 44 45 46 47 48 49 50
000
FTUS46 KEKA 030108 AAA
TAFACV
TAF AMD
KACV 030108Z 0301/0324 32014KT P6SM SKC
     FM030300 33006KT P6SM SKC
     FM030600 14005KT P6SM FEW012
     FM030900 14004KT 5SM BR BKN007
     FM031200 16003KT 4SM BR BKN003
     FM031400 VRB03KT 1SM BR OVC002
     FM031800 33010KT 6SM BR BKN004
     FM032100 33012G18KT P6SM SCT005=

USA.gov is the U.S. government's official web portal to all federal, state and local government web resources and services.